Time;durP1;ratioP1;P1;durP2;ratioP2;P2;SDS_P1;SDS_P2;PMS_P1;PMS_P2;Temp;Humidity;BMP_temperature;BMP_pressure;BME280_temperature;BME280_humidity;BME280_pressure;Samples;Min_cycle;Max_cycle;Signal;HPM_P1;HPM_P2
2022/01/31 00:00:19;;;;;;;;;;;3.80;91.60;;;;;;5065121;28;19951;-74
2022/01/31 00:02:48;;;;;;;;;;;3.80;91.70;;;;;;5062713;28;19928;-75
2022/01/31 00:05:15;;;;;;;;;;;3.80;91.70;;;;;;5061434;28;19944;-75
2022/01/31 00:07:41;;;;;;;;;;;3.80;91.70;;;;;;5062214;28;19981;-75
2022/01/31 00:10:10;;;;;;;;;;;3.80;91.80;;;;;;5063400;28;20411;-76
2022/01/31 00:12:47;;;;;;;;;;;3.80;91.80;;;;;;5060036;28;19932;-76
2022/01/31 00:15:14;;;;;;;;;;;3.80;91.90;;;;;;5061294;28;20414;-75
2022/01/31 00:17:41;;;;;;;;;;;3.80;91.90;;;;;;5064628;28;20366;-76
2022/01/31 00:20:09;;;;;;;;;;;3.80;91.90;;;;;;5058483;28;19929;-75
2022/01/31 00:22:36;;;;;;;;;;;3.80;92.00;;;;;;5057988;28;20374;-74
2022/01/31 00:25:02;;;;;;;;;;;3.70;92.00;;;;;;5064164;28;19924;-74
2022/01/31 00:27:29;;;;;;;;;;;3.80;92.00;;;;;;5061810;28;19978;-75
2022/01/31 00:29:55;;;;;;;;;;;3.80;92.00;;;;;;5060368;28;19978;-74
2022/01/31 00:32:22;;;;;;;;;;;3.70;91.90;;;;;;5062788;28;19940;-75
2022/01/31 00:34:48;;;;;;;;;;;3.70;92.00;;;;;;5056855;28;19940;-75
2022/01/31 00:37:16;;;;;;;;;;;3.70;92.00;;;;;;5063018;28;19936;-75
2022/01/31 00:39:43;;;;;;;;;;;3.70;92.00;;;;;;5064933;28;19935;-75
2022/01/31 00:42:09;;;;;;;;;;;3.70;92.00;;;;;;5063036;28;20308;-75
2022/01/31 00:44:46;;;;;;;;;;;3.70;92.00;;;;;;5063436;28;19932;-75
2022/01/31 00:47:22;;;;;;;;;;;3.70;92.00;;;;;;5059362;28;19963;-74
2022/01/31 00:49:54;;;;;;;;;;;3.70;92.00;;;;;;5063777;28;19936;-75
2022/01/31 00:52:22;;;;;;;;;;;3.70;92.10;;;;;;5067937;28;19928;-74
2022/01/31 00:54:48;;;;;;;;;;;3.70;92.10;;;;;;5064530;28;19962;-72
2022/01/31 00:57:15;;;;;;;;;;;3.70;92.10;;;;;;5062681;28;19929;-77
2022/01/31 00:59:42;;;;;;;;;;;3.70;92.20;;;;;;5062209;28;19925;-75
2022/01/31 01:02:08;;;;;;;;;;;3.70;92.20;;;;;;5061949;28;20427;-75
2022/01/31 01:04:35;;;;;;;;;;;3.70;92.20;;;;;;5060835;28;19928;-73
2022/01/31 01:07:01;;;;;;;;;;;3.60;92.20;;;;;;5063182;28;20388;-74
2022/01/31 01:09:29;;;;;;;;;;;3.70;92.20;;;;;;5064580;28;19940;-75
2022/01/31 01:11:56;;;;;;;;;;;3.70;92.20;;;;;;5064049;28;19932;-75
2022/01/31 01:14:22;;;;;;;;;;;3.60;92.20;;;;;;5066207;28;19932;-75
2022/01/31 01:16:49;;;;;;;;;;;3.60;92.30;;;;;;5066322;28;19978;-76
2022/01/31 01:19:15;;;;;;;;;;;3.60;92.30;;;;;;5067418;28;19931;-74
2022/01/31 01:21:42;;;;;;;;;;;3.60;92.30;;;;;;5066496;28;19928;-75
2022/01/31 01:24:09;;;;;;;;;;;3.70;92.30;;;;;;5066565;28;19940;-74
2022/01/31 01:26:36;;;;;;;;;;;3.60;92.30;;;;;;5071125;28;19924;-75
2022/01/31 01:29:03;;;;;;;;;;;3.60;92.40;;;;;;5063954;28;19932;-74
2022/01/31 01:31:30;;;;;;;;;;;3.60;92.40;;;;;;5071955;28;19935;-75
2022/01/31 01:33:56;;;;;;;;;;;3.60;92.30;;;;;;5065022;28;19928;-76
2022/01/31 01:36:23;;;;;;;;;;;3.60;92.20;;;;;;5069086;28;19932;-75
2022/01/31 01:38:49;;;;;;;;;;;3.60;92.20;;;;;;5067134;28;20015;-75
2022/01/31 01:41:16;;;;;;;;;;;3.60;92.20;;;;;;5067592;28;19932;-76
2022/01/31 01:43:44;;;;;;;;;;;3.60;92.30;;;;;;5067070;28;19966;-75
2022/01/31 01:46:10;;;;;;;;;;;3.60;92.30;;;;;;5066203;28;19933;-76
2022/01/31 01:48:37;;;;;;;;;;;3.60;92.30;;;;;;5063852;28;19971;-75
2022/01/31 01:51:04;;;;;;;;;;;3.60;92.30;;;;;;5066556;28;20347;-75
2022/01/31 01:53:31;;;;;;;;;;;3.60;92.20;;;;;;5068100;28;19925;-75
2022/01/31 01:55:57;;;;;;;;;;;3.50;92.30;;;;;;5065679;28;19934;-75
2022/01/31 01:58:24;;;;;;;;;;;3.60;92.30;;;;;;5066577;28;19986;-75
2022/01/31 02:00:59;;;;;;;;;;;3.60;92.30;;;;;;5064810;28;19982;-75
2022/01/31 02:03:26;;;;;;;;;;;3.60;92.30;;;;;;5067176;28;19928;-75
2022/01/31 02:05:53;;;;;;;;;;;3.50;92.30;;;;;;5066526;28;19951;-74
2022/01/31 02:08:20;;;;;;;;;;;3.60;92.30;;;;;;5065014;28;19928;-75
2022/01/31 02:10:47;;;;;;;;;;;3.50;92.30;;;;;;5066712;28;19964;-75
2022/01/31 02:13:15;;;;;;;;;;;3.50;92.30;;;;;;5068664;28;19935;-75
2022/01/31 02:15:44;;;;;;;;;;;3.60;92.40;;;;;;5066323;28;19924;-75
2022/01/31 02:18:13;;;;;;;;;;;3.60;92.40;;;;;;5061434;28;20087;-76
2022/01/31 02:20:41;;;;;;;;;;;3.50;92.40;;;;;;5067410;28;20446;-74
2022/01/31 02:23:08;;;;;;;;;;;3.50;92.40;;;;;;5066170;28;19929;-76
2022/01/31 02:25:51;;;;;;;;;;;3.50;92.40;;;;;;5067981;28;19928;-73
2022/01/31 02:28:17;;;;;;;;;;;3.50;92.40;;;;;;5061344;28;19936;-75
2022/01/31 02:30:44;;;;;;;;;;;3.50;92.50;;;;;;5067132;28;19932;-75
2022/01/31 02:33:11;;;;;;;;;;;3.50;92.50;;;;;;5064340;28;19928;-74
2022/01/31 02:35:37;;;;;;;;;;;3.50;92.50;;;;;;5066175;28;19936;-74
2022/01/31 02:38:05;;;;;;;;;;;3.50;92.50;;;;;;5073014;28;20357;-74
2022/01/31 02:40:32;;;;;;;;;;;3.50;92.60;;;;;;5067747;28;19928;-74
2022/01/31 02:42:58;;;;;;;;;;;3.50;92.60;;;;;;5064686;28;19986;-77
2022/01/31 02:45:25;;;;;;;;;;;3.50;92.60;;;;;;5064659;28;19928;-75
2022/01/31 02:47:54;;;;;;;;;;;3.50;92.60;;;;;;5065440;28;19985;-75
2022/01/31 02:50:21;;;;;;;;;;;3.50;92.60;;;;;;5066913;28;19929;-75
2022/01/31 02:52:57;;;;;;;;;;;3.50;92.60;;;;;;5064714;28;19932;-74
2022/01/31 02:55:25;;;;;;;;;;;3.50;92.60;;;;;;5063691;28;19972;-75
2022/01/31 02:57:51;;;;;;;;;;;3.50;92.60;;;;;;5058160;28;19932;-69
2022/01/31 03:00:18;;;;;;;;;;;3.50;92.60;;;;;;5072775;28;19928;-70
2022/01/31 03:02:44;;;;;;;;;;;3.50;92.60;;;;;;5061972;28;19933;-73
2022/01/31 03:05:11;;;;;;;;;;;3.50;92.60;;;;;;5070060;28;19928;-69
2022/01/31 03:07:37;;;;;;;;;;;3.50;92.60;;;;;;5071490;28;20010;-71
2022/01/31 03:10:04;;;;;;;;;;;3.50;92.60;;;;;;5070094;28;19936;-73
2022/01/31 03:12:32;;;;;;;;;;;3.50;92.60;;;;;;5062331;28;20522;-69
2022/01/31 03:14:59;;;;;;;;;;;3.50;92.60;;;;;;5062757;28;19935;-70
2022/01/31 03:17:25;;;;;;;;;;;3.50;92.60;;;;;;5065235;28;20439;-70
2022/01/31 03:19:54;;;;;;;;;;;3.50;92.60;;;;;;5058259;28;20392;-69
2022/01/31 03:22:22;;;;;;;;;;;3.50;92.60;;;;;;5066398;28;19936;-69
2022/01/31 03:24:49;;;;;;;;;;;3.50;92.60;;;;;;5064336;28;19925;-72
2022/01/31 03:27:16;;;;;;;;;;;3.50;92.60;;;;;;5065964;28;19934;-70
2022/01/31 03:29:44;;;;;;;;;;;3.50;92.70;;;;;;5068457;28;20007;-69
2022/01/31 03:32:10;;;;;;;;;;;3.50;92.70;;;;;;5073076;28;19928;-73
2022/01/31 03:34:37;;;;;;;;;;;3.50;92.60;;;;;;5064787;28;19981;-70
2022/01/31 03:37:04;;;;;;;;;;;3.50;92.70;;;;;;5070347;28;19973;-70
2022/01/31 03:39:30;;;;;;;;;;;3.50;92.70;;;;;;5065305;28;19928;-74
2022/01/31 03:41:57;;;;;;;;;;;3.50;92.70;;;;;;5066351;28;19929;-69
2022/01/31 03:44:23;;;;;;;;;;;3.50;92.70;;;;;;5062208;28;19924;-69
2022/01/31 03:46:51;;;;;;;;;;;3.50;92.70;;;;;;5063654;28;19939;-69
2022/01/31 03:49:18;;;;;;;;;;;3.50;92.70;;;;;;5066245;28;20399;-70
2022/01/31 03:51:44;;;;;;;;;;;3.50;92.70;;;;;;5067409;28;19981;-68
2022/01/31 03:54:11;;;;;;;;;;;3.50;92.70;;;;;;5067578;28;19932;-75
2022/01/31 03:56:38;;;;;;;;;;;3.50;92.70;;;;;;5059932;28;19974;-68
2022/01/31 03:59:04;;;;;;;;;;;3.50;92.80;;;;;;5065700;28;19928;-72
2022/01/31 04:01:31;;;;;;;;;;;3.50;92.80;;;;;;5066525;28;19981;-69
2022/01/31 04:03:58;;;;;;;;;;;3.50;92.80;;;;;;5064008;28;19936;-70
2022/01/31 04:06:25;;;;;;;;;;;3.50;92.80;;;;;;5061561;28;19928;-69
2022/01/31 04:08:52;;;;;;;;;;;3.50;92.80;;;;;;5068792;28;19973;-69
2022/01/31 04:11:18;;;;;;;;;;;3.50;92.70;;;;;;5069080;28;20001;-70
2022/01/31 04:13:45;;;;;;;;;;;3.50;92.70;;;;;;5069976;28;19928;-73
2022/01/31 04:16:11;;;;;;;;;;;3.50;92.70;;;;;;5065410;28;19929;-70
2022/01/31 04:18:38;;;;;;;;;;;3.50;92.70;;;;;;5067061;28;20599;-72
2022/01/31 04:21:06;;;;;;;;;;;3.50;92.70;;;;;;5064890;28;19932;-73
2022/01/31 04:23:32;;;;;;;;;;;3.50;92.70;;;;;;5066748;28;20343;-68
2022/01/31 04:26:07;;;;;;;;;;;3.50;92.70;;;;;;5063081;28;19952;-72
2022/01/31 04:28:41;;;;;;;;;;;3.50;92.70;;;;;;5067435;28;19928;-74
2022/01/31 04:31:14;;;;;;;;;;;3.50;92.60;;;;;;5064954;28;19940;-69
2022/01/31 04:33:41;;;;;;;;;;;3.60;92.70;;;;;;5063334;28;19938;-69
2022/01/31 04:36:10;;;;;;;;;;;3.50;92.60;;;;;;5065454;28;19932;-70
2022/01/31 04:38:36;;;;;;;;;;;3.50;92.60;;;;;;5065865;28;19928;-74
2022/01/31 04:41:03;;;;;;;;;;;3.50;92.60;;;;;;5062543;28;19935;-70
2022/01/31 04:43:30;;;;;;;;;;;3.50;92.60;;;;;;5064304;28;19928;-75
2022/01/31 04:46:00;;;;;;;;;;;3.50;92.60;;;;;;5060073;28;19932;-71
2022/01/31 04:48:27;;;;;;;;;;;3.50;92.50;;;;;;5060234;28;19956;-70
2022/01/31 04:50:54;;;;;;;;;;;3.60;92.50;;;;;;5066518;28;19928;-69
2022/01/31 04:53:22;;;;;;;;;;;3.60;92.60;;;;;;5068407;28;20762;-71
2022/01/31 04:55:48;;;;;;;;;;;3.60;92.60;;;;;;5073903;28;20430;-68
2022/01/31 04:58:15;;;;;;;;;;;3.60;92.60;;;;;;5061672;28;19933;-71
2022/01/31 05:00:41;;;;;;;;;;;3.60;92.60;;;;;;5070879;28;19936;-70
2022/01/31 05:03:13;;;;;;;;;;;3.60;92.50;;;;;;5067261;28;19933;-72
2022/01/31 05:05:39;;;;;;;;;;;3.60;92.50;;;;;;5064263;28;19978;-70
2022/01/31 05:08:06;;;;;;;;;;;3.60;92.50;;;;;;5064415;28;19932;-69
2022/01/31 05:10:34;;;;;;;;;;;3.60;92.60;;;;;;5063534;28;19977;-70
2022/01/31 05:13:01;;;;;;;;;;;3.60;92.50;;;;;;5061403;28;19928;-71
2022/01/31 05:15:27;;;;;;;;;;;3.60;92.50;;;;;;5058085;28;19935;-70
2022/01/31 05:17:54;;;;;;;;;;;3.60;92.50;;;;;;5061459;28;19932;-71
2022/01/31 05:20:21;;;;;;;;;;;3.60;92.50;;;;;;5059419;28;20346;-69
2022/01/31 05:22:47;;;;;;;;;;;3.60;92.40;;;;;;5060245;28;20586;-71
2022/01/31 05:25:14;;;;;;;;;;;3.70;92.50;;;;;;5066393;28;20393;-73
2022/01/31 05:27:42;;;;;;;;;;;3.70;92.50;;;;;;5066433;28;19932;-68
2022/01/31 05:30:09;;;;;;;;;;;3.70;92.50;;;;;;5068097;28;19928;-73
2022/01/31 05:32:35;;;;;;;;;;;3.70;92.50;;;;;;5068968;28;19932;-68
2022/01/31 05:35:04;;;;;;;;;;;3.70;92.50;;;;;;5066553;28;19981;-72
2022/01/31 05:37:31;;;;;;;;;;;3.70;92.50;;;;;;5067382;28;19928;-69
2022/01/31 05:39:58;;;;;;;;;;;3.70;92.50;;;;;;5064976;28;19932;-70
2022/01/31 05:42:24;;;;;;;;;;;3.70;92.50;;;;;;5061617;28;19928;-69
2022/01/31 05:44:52;;;;;;;;;;;3.70;92.50;;;;;;5067914;28;19986;-71
2022/01/31 05:47:19;;;;;;;;;;;3.70;92.50;;;;;;5063175;28;19982;-68
2022/01/31 05:49:46;;;;;;;;;;;3.70;92.60;;;;;;5062524;28;19929;-72
2022/01/31 05:52:12;;;;;;;;;;;3.80;92.60;;;;;;5062305;28;20022;-70
2022/01/31 05:54:40;;;;;;;;;;;3.70;92.60;;;;;;5067479;28;19986;-69
2022/01/31 05:57:07;;;;;;;;;;;3.80;92.70;;;;;;5066220;28;20731;-68
2022/01/31 05:59:33;;;;;;;;;;;3.80;92.70;;;;;;5070459;28;20613;-70
2022/01/31 06:02:02;;;;;;;;;;;3.80;92.70;;;;;;5070457;28;20554;-71
2022/01/31 06:04:29;;;;;;;;;;;3.80;92.80;;;;;;5065008;28;19971;-68
2022/01/31 06:06:56;;;;;;;;;;;3.80;92.90;;;;;;5068026;28;19925;-69
2022/01/31 06:09:23;;;;;;;;;;;3.80;93.00;;;;;;5066738;28;19933;-70
2022/01/31 06:11:49;;;;;;;;;;;3.80;93.10;;;;;;5064903;28;19935;-70
2022/01/31 06:14:16;;;;;;;;;;;3.80;93.20;;;;;;5063283;28;19943;-68
2022/01/31 06:16:43;;;;;;;;;;;3.80;93.30;;;;;;5062217;28;19928;-70
2022/01/31 06:19:11;;;;;;;;;;;3.90;93.40;;;;;;5065241;28;20058;-69
2022/01/31 06:21:37;;;;;;;;;;;3.90;93.50;;;;;;5065517;28;19936;-72
2022/01/31 06:24:09;;;;;;;;;;;3.90;93.60;;;;;;5069858;28;20006;-72
2022/01/31 06:26:36;;;;;;;;;;;3.90;93.70;;;;;;5063344;28;19925;-68
2022/01/31 06:29:02;;;;;;;;;;;3.90;93.90;;;;;;5067009;28;19928;-68
2022/01/31 06:31:30;;;;;;;;;;;3.90;94.00;;;;;;5063871;28;19997;-69
2022/01/31 06:33:57;;;;;;;;;;;3.90;94.10;;;;;;5067519;28;19986;-71
2022/01/31 06:36:25;;;;;;;;;;;3.90;94.20;;;;;;5065519;28;19998;-71
2022/01/31 06:38:52;;;;;;;;;;;3.90;94.40;;;;;;5066694;28;19979;-71
2022/01/31 06:41:19;;;;;;;;;;;3.90;94.40;;;;;;5062258;28;19928;-68
2022/01/31 06:43:45;;;;;;;;;;;3.90;94.50;;;;;;5064568;28;19928;-68
2022/01/31 06:46:12;;;;;;;;;;;3.80;94.50;;;;;;5069131;28;19928;-69
2022/01/31 06:48:38;;;;;;;;;;;3.90;94.60;;;;;;5061165;28;20468;-69
2022/01/31 06:51:05;;;;;;;;;;;3.90;96.20;;;;;;5068132;28;19927;-67
2022/01/31 06:53:33;;;;;;;;;;;3.90;96.30;;;;;;5067806;28;20316;-71
2022/01/31 06:56:00;;;;;;;;;;;3.90;96.30;;;;;;5069289;28;20043;-67
2022/01/31 06:58:27;;;;;;;;;;;3.90;96.30;;;;;;5067527;28;19932;-68
2022/01/31 07:00:54;;;;;;;;;;;3.90;96.20;;;;;;5068337;28;19937;-68
2022/01/31 07:03:20;;;;;;;;;;;3.90;96.20;;;;;;5069633;28;19928;-68
2022/01/31 07:05:47;;;;;;;;;;;3.90;96.10;;;;;;5068415;28;19990;-69
2022/01/31 07:08:15;;;;;;;;;;;3.80;96.10;;;;;;5066376;28;19933;-69
2022/01/31 07:10:50;;;;;;;;;;;3.90;96.10;;;;;;5066566;28;19990;-68
2022/01/31 07:13:34;;;;;;;;;;;3.80;96.00;;;;;;5066007;28;20389;-68
2022/01/31 07:16:00;;;;;;;;;;;3.90;96.00;;;;;;5064929;28;19940;-68
2022/01/31 07:18:27;;;;;;;;;;;3.80;95.90;;;;;;5071525;28;19985;-68
2022/01/31 07:20:55;;;;;;;;;;;3.80;96.00;;;;;;5065074;28;20273;-69
2022/01/31 07:23:26;;;;;;;;;;;3.80;96.00;;;;;;5068969;28;20004;-68
2022/01/31 07:25:54;;;;;;;;;;;3.90;96.10;;;;;;5063725;28;20037;-67
2022/01/31 07:28:21;;;;;;;;;;;3.80;96.20;;;;;;5072015;28;19933;-68
2022/01/31 07:30:48;;;;;;;;;;;3.80;96.20;;;;;;5069795;28;19973;-69
2022/01/31 07:33:15;;;;;;;;;;;3.80;96.20;;;;;;5066416;28;20045;-68
2022/01/31 07:35:42;;;;;;;;;;;3.90;96.20;;;;;;5066198;28;20456;-67
2022/01/31 07:38:09;;;;;;;;;;;3.80;96.30;;;;;;5069007;28;20727;-68
2022/01/31 07:40:35;;;;;;;;;;;3.90;96.30;;;;;;5066718;28;20293;-67
2022/01/31 07:43:04;;;;;;;;;;;3.80;96.30;;;;;;5065066;28;20520;-72
2022/01/31 07:45:30;;;;;;;;;;;3.80;96.30;;;;;;5061229;28;19935;-74
2022/01/31 07:47:57;;;;;;;;;;;3.90;96.40;;;;;;5065360;28;19928;-74
2022/01/31 07:50:24;;;;;;;;;;;3.80;96.40;;;;;;5061806;28;20234;-75
2022/01/31 07:52:50;;;;;;;;;;;3.80;96.50;;;;;;5059126;28;19936;-74
2022/01/31 07:55:17;;;;;;;;;;;3.80;96.60;;;;;;5062437;28;19928;-73
2022/01/31 07:57:46;;;;;;;;;;;3.80;96.70;;;;;;5061091;28;19932;-74
2022/01/31 08:00:15;;;;;;;;;;;3.80;96.80;;;;;;5060252;28;19928;-74
2022/01/31 08:02:42;;;;;;;;;;;3.80;96.70;;;;;;5060053;28;20698;-76
2022/01/31 08:05:08;;;;;;;;;;;3.80;96.70;;;;;;5062737;28;20319;-74
2022/01/31 08:07:35;;;;;;;;;;;3.90;96.80;;;;;;5062297;28;19928;-75
2022/01/31 08:10:02;;;;;;;;;;;3.90;96.80;;;;;;5063730;28;19939;-74
2022/01/31 08:12:29;;;;;;;;;;;3.90;96.90;;;;;;5059025;28;20470;-74
2022/01/31 08:15:01;;;;;;;;;;;3.90;96.90;;;;;;5060458;28;19929;-74
2022/01/31 08:17:29;;;;;;;;;;;3.90;97.00;;;;;;5056459;28;21993;-74
2022/01/31 08:19:56;;;;;;;;;;;3.90;97.00;;;;;;5061323;28;19928;-74
2022/01/31 08:22:22;;;;;;;;;;;3.80;97.10;;;;;;5059259;28;20001;-74
2022/01/31 08:24:49;;;;;;;;;;;3.90;97.10;;;;;;5060657;28;20718;-73
2022/01/31 08:27:16;;;;;;;;;;;3.90;97.20;;;;;;5061403;28;19936;-74
2022/01/31 08:29:42;;;;;;;;;;;3.90;97.20;;;;;;5063959;28;19974;-75
2022/01/31 08:32:17;;;;;;;;;;;3.90;97.30;;;;;;5057480;28;19932;-74
2022/01/31 08:37:29;;;;;;;;;;;3.90;97.30;;;;;;5066404;28;20025;-75
2022/01/31 08:39:56;;;;;;;;;;;3.90;97.30;;;;;;5056882;28;20529;-75
2022/01/31 08:42:22;;;;;;;;;;;3.90;97.30;;;;;;5058411;28;19933;-75
2022/01/31 08:44:49;;;;;;;;;;;4.00;97.40;;;;;;5065285;28;19928;-75
2022/01/31 08:47:16;;;;;;;;;;;4.00;97.40;;;;;;5060982;28;19935;-74
2022/01/31 08:49:42;;;;;;;;;;;3.90;97.50;;;;;;5065110;28;19928;-73
2022/01/31 08:52:10;;;;;;;;;;;4.00;97.50;;;;;;5061156;28;19933;-75
2022/01/31 08:54:37;;;;;;;;;;;4.00;97.60;;;;;;5064210;28;19932;-75
2022/01/31 08:57:04;;;;;;;;;;;4.00;97.60;;;;;;5061244;28;19933;-75
2022/01/31 08:59:32;;;;;;;;;;;4.00;97.70;;;;;;5067775;28;19928;-74
2022/01/31 09:02:06;;;;;;;;;;;4.10;97.70;;;;;;5060711;28;20008;-75
2022/01/31 09:04:35;;;;;;;;;;;4.10;97.70;;;;;;5061780;28;19956;-75
2022/01/31 09:07:02;;;;;;;;;;;4.10;97.70;;;;;;5060918;28;19935;-75
2022/01/31 09:09:31;;;;;;;;;;;4.10;97.70;;;;;;5064265;28;19935;-76
2022/01/31 09:11:58;;;;;;;;;;;4.10;97.70;;;;;;5060637;28;20027;-74
2022/01/31 09:14:25;;;;;;;;;;;4.10;97.70;;;;;;5060805;28;19978;-74
2022/01/31 09:16:51;;;;;;;;;;;4.10;97.70;;;;;;5063965;28;20043;-76
2022/01/31 09:19:18;;;;;;;;;;;4.20;97.70;;;;;;5057331;28;19936;-74
2022/01/31 09:21:45;;;;;;;;;;;4.20;97.60;;;;;;5067133;28;19935;-74
2022/01/31 09:24:11;;;;;;;;;;;4.20;97.60;;;;;;5060971;28;19956;-75
2022/01/31 09:26:39;;;;;;;;;;;4.20;97.60;;;;;;5063001;28;19947;-75
2022/01/31 09:29:06;;;;;;;;;;;4.20;97.50;;;;;;5060710;28;19936;-74
2022/01/31 09:31:33;;;;;;;;;;;4.20;97.50;;;;;;5066277;28;19928;-75
2022/01/31 09:33:59;;;;;;;;;;;4.20;97.50;;;;;;5067895;28;20524;-75
2022/01/31 09:36:27;;;;;;;;;;;4.20;97.50;;;;;;5064911;28;19929;-74
2022/01/31 09:38:54;;;;;;;;;;;4.20;97.50;;;;;;5068524;28;19964;-73
2022/01/31 09:41:23;;;;;;;;;;;4.20;97.50;;;;;;5062510;28;19928;-76
2022/01/31 09:44:03;;;;;;;;;;;4.20;97.40;;;;;;5067457;28;20273;-74
2022/01/31 09:49:20;;;;;;;;;;;4.20;97.30;;;;;;5065875;28;19935;-75
2022/01/31 09:51:46;;;;;;;;;;;4.20;97.30;;;;;;5065419;28;19936;-74
2022/01/31 09:54:13;;;;;;;;;;;4.20;97.30;;;;;;5067566;28;19958;-74
2022/01/31 09:56:41;;;;;;;;;;;4.30;97.30;;;;;;5065627;28;20315;-75
2022/01/31 09:59:09;;;;;;;;;;;4.30;97.40;;;;;;5062995;28;20062;-74
2022/01/31 10:01:37;;;;;;;;;;;4.30;97.30;;;;;;5064291;28;19989;-74
2022/01/31 10:04:07;;;;;;;;;;;4.30;97.40;;;;;;5066527;28;19928;-74
2022/01/31 10:06:35;;;;;;;;;;;4.30;97.30;;;;;;5070295;28;19928;-74
2022/01/31 10:09:04;;;;;;;;;;;4.30;97.30;;;;;;5072581;28;20797;-76
2022/01/31 10:11:39;;;;;;;;;;;4.30;97.30;;;;;;5063965;28;19981;-74
2022/01/31 10:16:55;;;;;;;;;;;4.30;97.20;;;;;;5063952;28;19935;-75
2022/01/31 10:19:22;;;;;;;;;;;4.30;97.20;;;;;;5062970;28;20061;-74
2022/01/31 10:21:59;;;;;;;;;;;4.40;97.20;;;;;;5065635;28;20768;-74
2022/01/31 10:24:26;;;;;;;;;;;4.40;97.20;;;;;;5065428;28;20312;-75
2022/01/31 10:26:53;;;;;;;;;;;4.30;97.10;;;;;;5060400;28;20388;-74
2022/01/31 10:29:22;;;;;;;;;;;4.30;97.10;;;;;;5066953;28;19925;-75
2022/01/31 10:32:01;;;;;;;;;;;4.40;97.20;;;;;;5063908;28;19982;-74
2022/01/31 10:34:29;;;;;;;;;;;4.40;97.20;;;;;;5063837;28;19990;-75
2022/01/31 10:37:01;;;;;;;;;;;4.40;97.10;;;;;;5063081;28;19933;-75
2022/01/31 10:45:28;;;;;;;;;;;4.40;97.10;;;;;;5061808;28;20061;-76
2022/01/31 10:53:37;;;;;;;;;;;4.50;97.00;;;;;;5019907;28;19965;-75
2022/01/31 10:56:04;;;;;;;;;;;4.40;96.90;;;;;;5064987;28;19943;-75
2022/01/31 10:58:31;;;;;;;;;;;4.50;97.20;;;;;;5067919;28;19958;-73
2022/01/31 11:01:11;;;;;;;;;;;4.50;96.90;;;;;;5070071;28;19934;-73
2022/01/31 11:03:40;;;;;;;;;;;4.50;96.80;;;;;;5058775;28;19928;-76
2022/01/31 11:06:08;;;;;;;;;;;4.50;96.70;;;;;;5066242;28;20721;-75
2022/01/31 11:08:35;;;;;;;;;;;4.50;96.60;;;;;;5063015;28;19932;-75
2022/01/31 11:11:02;;;;;;;;;;;4.60;96.50;;;;;;5062728;28;19960;-74
2022/01/31 11:13:31;;;;;;;;;;;4.60;96.30;;;;;;5064637;28;19932;-75
2022/01/31 11:15:58;;;;;;;;;;;4.60;96.10;;;;;;5064221;28;20573;-75
2022/01/31 11:18:27;;;;;;;;;;;4.60;95.90;;;;;;5064319;28;19928;-73
2022/01/31 11:20:57;;;;;;;;;;;4.60;95.80;;;;;;5064279;28;19991;-74
2022/01/31 11:23:26;;;;;;;;;;;4.60;95.70;;;;;;5062290;28;19932;-75
2022/01/31 11:25:54;;;;;;;;;;;4.60;95.60;;;;;;5061422;28;19928;-74
2022/01/31 11:28:21;;;;;;;;;;;4.60;95.50;;;;;;5063760;28;19928;-73
2022/01/31 11:30:48;;;;;;;;;;;4.60;95.40;;;;;;5061747;28;19932;-76
2022/01/31 11:33:15;;;;;;;;;;;4.70;95.30;;;;;;5057268;28;20319;-75
2022/01/31 11:35:41;;;;;;;;;;;4.70;95.30;;;;;;5060474;28;19936;-73
2022/01/31 11:38:09;;;;;;;;;;;4.70;95.10;;;;;;5062665;28;19929;-75
2022/01/31 11:40:36;;;;;;;;;;;4.70;95.10;;;;;;5058234;28;20399;-74
2022/01/31 11:43:03;;;;;;;;;;;4.70;95.00;;;;;;5062164;28;20762;-74
2022/01/31 11:45:30;;;;;;;;;;;4.70;94.90;;;;;;5061303;28;20017;-73
2022/01/31 11:47:58;;;;;;;;;;;4.70;94.80;;;;;;5059337;28;19935;-74
2022/01/31 11:50:25;;;;;;;;;;;4.80;94.70;;;;;;5063040;28;19928;-73
2022/01/31 11:52:54;;;;;;;;;;;4.70;94.60;;;;;;5058990;28;19928;-75
2022/01/31 11:55:23;;;;;;;;;;;4.80;94.50;;;;;;5066974;28;19939;-74
2022/01/31 11:57:50;;;;;;;;;;;4.70;94.40;;;;;;5061423;28;19939;-73
2022/01/31 12:00:17;;;;;;;;;;;4.80;94.30;;;;;;5065383;28;19924;-75
2022/01/31 12:02:45;;;;;;;;;;;4.70;94.20;;;;;;5064501;28;20170;-74
2022/01/31 12:05:12;;;;;;;;;;;4.80;94.20;;;;;;5063494;28;19936;-73
2022/01/31 12:07:41;;;;;;;;;;;4.80;94.10;;;;;;5064559;28;19973;-73
2022/01/31 12:10:09;;;;;;;;;;;4.80;94.00;;;;;;5062203;28;19929;-74
2022/01/31 12:12:50;;;;;;;;;;;4.80;93.90;;;;;;5061889;28;19924;-73
2022/01/31 12:15:50;;;;;;;;;;;4.90;93.90;;;;;;5058372;28;20374;-75
2022/01/31 12:18:46;;;;;;;;;;;4.80;93.90;;;;;;5059344;28;19980;-74
2022/01/31 12:23:59;;;;;;;;;;;4.80;93.70;;;;;;5058713;28;19931;-74
2022/01/31 12:26:35;;;;;;;;;;;4.90;93.70;;;;;;5061203;28;19939;-73
2022/01/31 12:29:06;;;;;;;;;;;4.90;93.70;;;;;;5064318;28;19936;-74
2022/01/31 12:31:37;;;;;;;;;;;4.90;93.50;;;;;;5060956;28;19928;-76
2022/01/31 12:34:10;;;;;;;;;;;4.90;93.40;;;;;;5056156;28;22599;-74
2022/01/31 12:36:50;;;;;;;;;;;4.90;93.40;;;;;;5063751;28;19928;-73
2022/01/31 12:39:36;;;;;;;;;;;4.90;93.40;;;;;;5062141;28;19929;-74
2022/01/31 12:42:32;;;;;;;;;;;4.90;93.30;;;;;;5056892;28;20475;-74
2022/01/31 12:45:00;;;;;;;;;;;5.00;93.30;;;;;;5063079;28;19927;-75
2022/01/31 12:47:27;;;;;;;;;;;5.00;93.20;;;;;;5063538;28;19932;-74
2022/01/31 12:50:08;;;;;;;;;;;5.00;93.10;;;;;;5061314;28;19936;-75
2022/01/31 12:52:35;;;;;;;;;;;5.00;93.10;;;;;;5057857;28;19932;-73
2022/01/31 12:55:09;;;;;;;;;;;5.00;93.10;;;;;;5061551;28;20320;-74
2022/01/31 12:57:37;;;;;;;;;;;5.00;93.40;;;;;;5055729;28;19936;-75
2022/01/31 13:00:06;;;;;;;;;;;5.00;93.00;;;;;;5060013;28;19986;-74
2022/01/31 13:02:32;;;;;;;;;;;5.00;93.00;;;;;;5062275;28;20602;-73
2022/01/31 13:04:59;;;;;;;;;;;5.10;93.00;;;;;;5058825;28;19928;-73
2022/01/31 13:07:28;;;;;;;;;;;5.10;93.00;;;;;;5062544;28;19935;-72
2022/01/31 13:09:54;;;;;;;;;;;5.10;92.90;;;;;;5059852;28;19932;-75
2022/01/31 13:12:24;;;;;;;;;;;5.10;92.90;;;;;;5059248;28;20308;-73
2022/01/31 13:14:52;;;;;;;;;;;5.10;92.90;;;;;;5060295;28;19928;-73
2022/01/31 13:17:21;;;;;;;;;;;5.10;92.80;;;;;;5062199;28;19970;-73
2022/01/31 13:19:48;;;;;;;;;;;5.10;92.80;;;;;;5057064;28;20454;-74
2022/01/31 13:22:18;;;;;;;;;;;5.20;92.80;;;;;;5062828;28;19936;-74
2022/01/31 13:24:47;;;;;;;;;;;5.20;92.80;;;;;;5060354;28;20407;-73
2022/01/31 13:27:15;;;;;;;;;;;5.20;92.70;;;;;;5061732;28;19935;-75
2022/01/31 13:29:43;;;;;;;;;;;5.20;92.60;;;;;;5063022;28;19935;-74
2022/01/31 13:32:14;;;;;;;;;;;5.20;92.60;;;;;;5060537;28;20117;-73
2022/01/31 13:34:43;;;;;;;;;;;5.20;92.60;;;;;;5061355;28;19924;-73
2022/01/31 13:37:28;;;;;;;;;;;5.20;92.50;;;;;;5063605;28;19936;-73
2022/01/31 13:39:55;;;;;;;;;;;5.30;92.40;;;;;;5055817;28;19929;-73
2022/01/31 13:42:23;;;;;;;;;;;5.30;92.30;;;;;;5057203;28;19935;-74
2022/01/31 13:44:53;;;;;;;;;;;5.30;92.30;;;;;;5061989;28;19964;-74
2022/01/31 13:47:28;;;;;;;;;;;5.30;92.20;;;;;;5059540;28;19928;-74
2022/01/31 13:50:01;;;;;;;;;;;5.30;92.00;;;;;;5060149;28;19928;-74
2022/01/31 13:52:32;;;;;;;;;;;5.30;91.90;;;;;;5059292;28;20002;-72
2022/01/31 13:54:59;;;;;;;;;;;5.40;91.90;;;;;;5058810;28;19932;-75
2022/01/31 13:57:26;;;;;;;;;;;5.40;91.90;;;;;;5058164;28;19939;-69
2022/01/31 13:59:54;;;;;;;;;;;5.40;91.90;;;;;;5062071;28;19927;-67
2022/01/31 14:02:22;;;;;;;;;;;5.40;91.80;;;;;;5066182;28;20331;-69
2022/01/31 14:04:48;;;;;;;;;;;5.40;91.60;;;;;;5067900;28;20423;-69
2022/01/31 14:07:26;;;;;;;;;;;5.40;91.60;;;;;;5067876;28;19928;-70
2022/01/31 14:09:53;;;;;;;;;;;5.40;91.60;;;;;;5062073;28;19939;-69
2022/01/31 14:12:19;;;;;;;;;;;5.40;91.90;;;;;;5051917;28;20321;-69
2022/01/31 14:14:47;;;;;;;;;;;5.50;91.60;;;;;;5063298;28;19955;-69
2022/01/31 14:17:13;;;;;;;;;;;5.50;91.50;;;;;;5069049;28;20401;-70
2022/01/31 14:19:40;;;;;;;;;;;5.50;91.40;;;;;;5070375;28;20380;-71
2022/01/31 14:22:08;;;;;;;;;;;5.50;91.50;;;;;;5071265;28;19932;-69
2022/01/31 14:24:36;;;;;;;;;;;5.50;91.50;;;;;;5068211;28;19936;-70
2022/01/31 14:27:03;;;;;;;;;;;5.50;91.50;;;;;;5065530;28;19974;-70
2022/01/31 14:29:30;;;;;;;;;;;5.50;91.50;;;;;;5069231;28;19931;-72
2022/01/31 14:31:58;;;;;;;;;;;5.50;91.50;;;;;;5065522;28;20358;-69
2022/01/31 14:34:25;;;;;;;;;;;5.50;91.40;;;;;;5063716;28;19939;-69
2022/01/31 14:36:53;;;;;;;;;;;5.50;91.30;;;;;;5069249;28;19967;-69
2022/01/31 14:39:32;;;;;;;;;;;5.50;91.20;;;;;;5071821;28;20605;-68
2022/01/31 14:42:23;;;;;;;;;;;5.50;91.20;;;;;;5063132;28;19924;-70
2022/01/31 14:47:41;;;;;;;;;;;5.50;91.00;;;;;;5067799;28;19982;-70
2022/01/31 14:50:09;;;;;;;;;;;5.50;91.00;;;;;;5069551;28;19932;-72
2022/01/31 14:52:36;;;;;;;;;;;5.50;90.90;;;;;;5071421;28;19943;-71
2022/01/31 14:55:05;;;;;;;;;;;5.50;90.90;;;;;;5071895;28;19932;-69
2022/01/31 14:57:33;;;;;;;;;;;5.60;90.90;;;;;;5058004;28;19929;-71
2022/01/31 15:00:00;;;;;;;;;;;5.50;90.80;;;;;;5068664;28;20033;-71
2022/01/31 15:02:27;;;;;;;;;;;5.60;90.90;;;;;;5066172;28;20625;-70